Drakesville, Iowa
Current Conditions -  °F | °C
As of 1:53 PM on Monday 22 Dec 2014 (Local Time) from KOTM Reporting Station
Haze Haze  
Wind Chill: 33°   Ceiling: 300
Heat Index: 39°   Visibility: 1.7mi
Dew Point: 37°   Wind: 9mph
Humidity: 93%   Direction: 120°ESE
Pressure: 29.51"   Gusts: NA
Location:  40.8°N, 92.48°W
Report Text: KOTM 221953Z AUTO 12008KT 1 3/4SM BR OVC003 04/03 A2951 RMK AO2 SLP997 T00390028
Loading
Personal Weather Stations






























Interactive Weather Map New forecast layout! Learn more

10-Day Weather Forecast

Advertisements
Track Severe Weather on mobile